sensor_id;sensor_type;location;lat;lon;timestamp;temperature;humidity
7700;DHT22;3892;47.794;19.126;2023-09-19T00:00:43;27.90;44.70
7700;DHT22;3892;47.794;19.126;2023-09-19T00:03:14;27.90;44.70
7700;DHT22;3892;47.794;19.126;2023-09-19T00:05:42;27.90;44.70
7700;DHT22;3892;47.794;19.126;2023-09-19T00:08:11;27.90;44.60
7700;DHT22;3892;47.794;19.126;2023-09-19T00:10:40;27.90;44.40
7700;DHT22;3892;47.794;19.126;2023-09-19T00:13:09;27.80;44.40
7700;DHT22;3892;47.794;19.126;2023-09-19T00:15:45;27.70;44.00
7700;DHT22;3892;47.794;19.126;2023-09-19T00:18:16;27.70;44.20
7700;DHT22;3892;47.794;19.126;2023-09-19T00:20:45;27.70;44.40
7700;DHT22;3892;47.794;19.126;2023-09-19T00:23:18;27.70;44.30
7700;DHT22;3892;47.794;19.126;2023-09-19T00:25:46;27.70;44.30
7700;DHT22;3892;47.794;19.126;2023-09-19T00:28:14;27.70;44.30
7700;DHT22;3892;47.794;19.126;2023-09-19T00:30:45;27.70;44.20
7700;DHT22;3892;47.794;19.126;2023-09-19T00:33:16;27.80;44.20
7700;DHT22;3892;47.794;19.126;2023-09-19T00:35:49;27.80;44.10
7700;DHT22;3892;47.794;19.126;2023-09-19T00:38:18;27.70;44.10
7700;DHT22;3892;47.794;19.126;2023-09-19T00:40:48;27.70;44.20
7700;DHT22;3892;47.794;19.126;2023-09-19T00:43:17;27.70;44.40
7700;DHT22;3892;47.794;19.126;2023-09-19T00:45:48;27.70;44.20
7700;DHT22;3892;47.794;19.126;2023-09-19T00:48:18;27.60;44.40
7700;DHT22;3892;47.794;19.126;2023-09-19T00:50:47;27.50;44.50
7700;DHT22;3892;47.794;19.126;2023-09-19T00:53:19;27.40;44.70
7700;DHT22;3892;47.794;19.126;2023-09-19T00:55:48;27.20;44.60
7700;DHT22;3892;47.794;19.126;2023-09-19T00:58:17;27.20;45.00
7700;DHT22;3892;47.794;19.126;2023-09-19T01:00:48;27.10;45.20
7700;DHT22;3892;47.794;19.126;2023-09-19T01:03:17;27.10;45.30
7700;DHT22;3892;47.794;19.126;2023-09-19T01:05:46;27.20;45.40
7700;DHT22;3892;47.794;19.126;2023-09-19T01:08:14;27.20;45.40
7700;DHT22;3892;47.794;19.126;2023-09-19T01:10:49;27.20;45.50
7700;DHT22;3892;47.794;19.126;2023-09-19T01:13:28;27.30;45.50
7700;DHT22;3892;47.794;19.126;2023-09-19T01:16:05;27.30;45.30
7700;DHT22;3892;47.794;19.126;2023-09-19T01:18:40;27.40;45.30
7700;DHT22;3892;47.794;19.126;2023-09-19T01:21:15;27.50;45.60
7700;DHT22;3892;47.794;19.126;2023-09-19T01:24:13;27.60;44.90
7700;DHT22;3892;47.794;19.126;2023-09-19T01:27:17;27.70;44.80
7700;DHT22;3892;47.794;19.126;2023-09-19T01:29:47;27.80;45.00
7700;DHT22;3892;47.794;19.126;2023-09-19T01:32:18;27.80;45.60
7700;DHT22;3892;47.794;19.126;2023-09-19T01:34:50;27.80;45.20
7700;DHT22;3892;47.794;19.126;2023-09-19T01:37:20;27.90;45.10
7700;DHT22;3892;47.794;19.126;2023-09-19T01:39:55;27.90;45.00
7700;DHT22;3892;47.794;19.126;2023-09-19T01:42:35;27.90;44.90
7700;DHT22;3892;47.794;19.126;2023-09-19T01:45:11;27.90;44.90
7700;DHT22;3892;47.794;19.126;2023-09-19T01:47:48;27.90;44.70
7700;DHT22;3892;47.794;19.126;2023-09-19T01:50:21;27.90;44.80
7700;DHT22;3892;47.794;19.126;2023-09-19T01:53:15;27.90;44.80
7700;DHT22;3892;47.794;19.126;2023-09-19T01:55:48;27.80;44.70
7700;DHT22;3892;47.794;19.126;2023-09-19T01:58:21;27.80;45.00
7700;DHT22;3892;47.794;19.126;2023-09-19T02:00:50;27.80;45.00
7700;DHT22;3892;47.794;19.126;2023-09-19T02:03:21;27.90;45.10
7700;DHT22;3892;47.794;19.126;2023-09-19T02:05:50;27.80;45.10
7700;DHT22;3892;47.794;19.126;2023-09-19T02:08:22;27.90;45.10
7700;DHT22;3892;47.794;19.126;2023-09-19T02:10:50;27.90;45.10
7700;DHT22;3892;47.794;19.126;2023-09-19T02:13:20;27.80;45.10
7700;DHT22;3892;47.794;19.126;2023-09-19T02:15:49;27.90;45.40
7700;DHT22;3892;47.794;19.126;2023-09-19T02:18:17;27.80;45.10
7700;DHT22;3892;47.794;19.126;2023-09-19T02:20:46;27.90;45.30
7700;DHT22;3892;47.794;19.126;2023-09-19T02:23:15;27.90;45.40
7700;DHT22;3892;47.794;19.126;2023-09-19T02:25:51;27.90;45.20
7700;DHT22;3892;47.794;19.126;2023-09-19T02:28:20;28.00;45.30
7700;DHT22;3892;47.794;19.126;2023-09-19T02:30:49;28.00;46.00
7700;DHT22;3892;47.794;19.126;2023-09-19T02:33:17;28.00;45.50
7700;DHT22;3892;47.794;19.126;2023-09-19T02:35:47;28.00;45.70
7700;DHT22;3892;47.794;19.126;2023-09-19T02:38:15;28.00;45.50
7700;DHT22;3892;47.794;19.126;2023-09-19T02:40:47;27.90;45.50
7700;DHT22;3892;47.794;19.126;2023-09-19T02:43:16;27.90;45.70
7700;DHT22;3892;47.794;19.126;2023-09-19T02:45:44;28.00;45.80
7700;DHT22;3892;47.794;19.126;2023-09-19T02:48:13;28.00;45.50
7700;DHT22;3892;47.794;19.126;2023-09-19T02:50:42;28.00;45.50
7700;DHT22;3892;47.794;19.126;2023-09-19T02:53:12;28.00;45.70
7700;DHT22;3892;47.794;19.126;2023-09-19T02:55:40;28.00;45.30
7700;DHT22;3892;47.794;19.126;2023-09-19T02:58:09;28.10;45.30
7700;DHT22;3892;47.794;19.126;2023-09-19T03:00:38;27.90;45.20
7700;DHT22;3892;47.794;19.126;2023-09-19T03:03:09;27.90;45.60
7700;DHT22;3892;47.794;19.126;2023-09-19T03:05:37;27.80;45.70
7700;DHT22;3892;47.794;19.126;2023-09-19T03:08:05;27.80;46.10
7700;DHT22;3892;47.794;19.126;2023-09-19T03:10:35;27.80;46.20
7700;DHT22;3892;47.794;19.126;2023-09-19T03:13:04;27.80;46.20
7700;DHT22;3892;47.794;19.126;2023-09-19T03:15:32;27.80;46.00
7700;DHT22;3892;47.794;19.126;2023-09-19T03:18:01;27.90;46.20
7700;DHT22;3892;47.794;19.126;2023-09-19T03:20:29;27.90;46.10
7700;DHT22;3892;47.794;19.126;2023-09-19T03:22:57;27.80;46.30
7700;DHT22;3892;47.794;19.126;2023-09-19T03:25:26;27.80;46.30
7700;DHT22;3892;47.794;19.126;2023-09-19T03:27:57;27.70;46.20
7700;DHT22;3892;47.794;19.126;2023-09-19T03:30:25;27.70;46.50
7700;DHT22;3892;47.794;19.126;2023-09-19T03:32:54;27.70;46.50
7700;DHT22;3892;47.794;19.126;2023-09-19T03:35:22;27.70;46.50
7700;DHT22;3892;47.794;19.126;2023-09-19T03:37:50;27.60;46.50
7700;DHT22;3892;47.794;19.126;2023-09-19T03:40:19;27.50;46.60
7700;DHT22;3892;47.794;19.126;2023-09-19T03:42:48;27.50;46.70
7700;DHT22;3892;47.794;19.126;2023-09-19T03:45:18;27.50;46.70
7700;DHT22;3892;47.794;19.126;2023-09-19T03:47:46;27.50;46.50
7700;DHT22;3892;47.794;19.126;2023-09-19T03:50:15;27.50;46.70
7700;DHT22;3892;47.794;19.126;2023-09-19T03:52:44;27.50;46.70
7700;DHT22;3892;47.794;19.126;2023-09-19T03:55:12;27.50;47.00
7700;DHT22;3892;47.794;19.126;2023-09-19T03:57:41;27.50;47.20
7700;DHT22;3892;47.794;19.126;2023-09-19T04:00:10;27.50;46.70
7700;DHT22;3892;47.794;19.126;2023-09-19T04:02:42;27.60;46.50
7700;DHT22;3892;47.794;19.126;2023-09-19T04:05:12;27.60;46.80
7700;DHT22;3892;47.794;19.126;2023-09-19T04:07:41;27.60;46.80
7700;DHT22;3892;47.794;19.126;2023-09-19T04:10:09;27.70;46.70
7700;DHT22;3892;47.794;19.126;2023-09-19T04:12:38;27.60;46.50
7700;DHT22;3892;47.794;19.126;2023-09-19T04:15:07;27.70;46.60
7700;DHT22;3892;47.794;19.126;2023-09-19T04:17:41;27.70;46.50
7700;DHT22;3892;47.794;19.126;2023-09-19T04:20:10;27.70;46.50
7700;DHT22;3892;47.794;19.126;2023-09-19T04:22:39;27.70;46.40
7700;DHT22;3892;47.794;19.126;2023-09-19T04:25:08;27.70;46.00
7700;DHT22;3892;47.794;19.126;2023-09-19T04:27:36;27.70;46.00
7700;DHT22;3892;47.794;19.126;2023-09-19T04:30:06;27.70;45.80
7700;DHT22;3892;47.794;19.126;2023-09-19T04:32:37;27.60;45.80
7700;DHT22;3892;47.794;19.126;2023-09-19T04:35:09;27.60;45.50
7700;DHT22;3892;47.794;19.126;2023-09-19T04:37:39;27.40;45.50
7700;DHT22;3892;47.794;19.126;2023-09-19T04:40:09;27.20;45.70
7700;DHT22;3892;47.794;19.126;2023-09-19T04:42:42;27.00;45.90
7700;DHT22;3892;47.794;19.126;2023-09-19T04:45:10;26.90;46.10
7700;DHT22;3892;47.794;19.126;2023-09-19T04:47:39;26.80;46.30
7700;DHT22;3892;47.794;19.126;2023-09-19T04:50:09;26.80;46.60
7700;DHT22;3892;47.794;19.126;2023-09-19T04:52:40;26.70;46.60
7700;DHT22;3892;47.794;19.126;2023-09-19T04:55:12;26.70;46.60
7700;DHT22;3892;47.794;19.126;2023-09-19T04:57:44;26.60;46.70
7700;DHT22;3892;47.794;19.126;2023-09-19T05:00:13;26.40;46.90
7700;DHT22;3892;47.794;19.126;2023-09-19T05:02:43;26.30;47.10
7700;DHT22;3892;47.794;19.126;2023-09-19T05:05:13;26.30;47.20
7700;DHT22;3892;47.794;19.126;2023-09-19T05:07:44;26.20;47.40
7700;DHT22;3892;47.794;19.126;2023-09-19T05:10:13;26.20;47.50
7700;DHT22;3892;47.794;19.126;2023-09-19T05:12:41;26.10;47.70
7700;DHT22;3892;47.794;19.126;2023-09-19T05:15:14;26.10;47.80
7700;DHT22;3892;47.794;19.126;2023-09-19T05:17:47;26.20;48.00
7700;DHT22;3892;47.794;19.126;2023-09-19T05:20:18;26.10;48.10
7700;DHT22;3892;47.794;19.126;2023-09-19T05:22:58;26.20;48.90
7700;DHT22;3892;47.794;19.126;2023-09-19T05:25:28;26.20;48.30
7700;DHT22;3892;47.794;19.126;2023-09-19T05:27:57;26.10;48.50
7700;DHT22;3892;47.794;19.126;2023-09-19T05:30:26;26.10;48.60
7700;DHT22;3892;47.794;19.126;2023-09-19T05:32:55;25.90;48.70
7700;DHT22;3892;47.794;19.126;2023-09-19T05:35:25;26.00;48.90
7700;DHT22;3892;47.794;19.126;2023-09-19T05:37:54;26.00;48.90
7700;DHT22;3892;47.794;19.126;2023-09-19T05:40:22;25.80;48.90
7700;DHT22;3892;47.794;19.126;2023-09-19T05:42:51;25.80;48.90
7700;DHT22;3892;47.794;19.126;2023-09-19T05:45:19;25.80;49.10
7700;DHT22;3892;47.794;19.126;2023-09-19T05:47:49;25.90;49.30
7700;DHT22;3892;47.794;19.126;2023-09-19T05:50:18;25.90;49.10
7700;DHT22;3892;47.794;19.126;2023-09-19T05:52:53;25.80;49.00
7700;DHT22;3892;47.794;19.126;2023-09-19T05:55:22;25.80;49.00
7700;DHT22;3892;47.794;19.126;2023-09-19T05:57:52;25.80;49.10
7700;DHT22;3892;47.794;19.126;2023-09-19T06:00:25;25.70;49.20
7700;DHT22;3892;47.794;19.126;2023-09-19T06:02:55;25.70;49.40
7700;DHT22;3892;47.794;19.126;2023-09-19T06:05:24;25.60;49.30
7700;DHT22;3892;47.794;19.126;2023-09-19T06:07:54;25.60;49.30
7700;DHT22;3892;47.794;19.126;2023-09-19T06:10:27;25.50;49.30
7700;DHT22;3892;47.794;19.126;2023-09-19T06:12:56;25.50;49.30
7700;DHT22;3892;47.794;19.126;2023-09-19T06:15:24;25.50;49.30
7700;DHT22;3892;47.794;19.126;2023-09-19T06:17:54;25.50;49.40
7700;DHT22;3892;47.794;19.126;2023-09-19T06:20:23;25.40;49.40
7700;DHT22;3892;47.794;19.126;2023-09-19T06:22:53;25.40;49.60
7700;DHT22;3892;47.794;19.126;2023-09-19T06:25:22;25.50;49.70
7700;DHT22;3892;47.794;19.126;2023-09-19T06:27:51;25.50;49.60
7700;DHT22;3892;47.794;19.126;2023-09-19T06:30:21;25.50;49.50
7700;DHT22;3892;47.794;19.126;2023-09-19T06:32:55;25.50;49.60
7700;DHT22;3892;47.794;19.126;2023-09-19T06:35:24;25.50;49.50
7700;DHT22;3892;47.794;19.126;2023-09-19T06:37:53;25.50;49.60
7700;DHT22;3892;47.794;19.126;2023-09-19T06:40:22;25.40;49.40
7700;DHT22;3892;47.794;19.126;2023-09-19T06:42:52;25.40;49.30
7700;DHT22;3892;47.794;19.126;2023-09-19T06:45:20;25.40;49.40
7700;DHT22;3892;47.794;19.126;2023-09-19T06:47:50;25.60;49.40
7700;DHT22;3892;47.794;19.126;2023-09-19T06:50:19;25.60;49.50
7700;DHT22;3892;47.794;19.126;2023-09-19T06:52:49;25.70;49.20
7700;DHT22;3892;47.794;19.126;2023-09-19T06:55:19;25.80;49.70
7700;DHT22;3892;47.794;19.126;2023-09-19T06:57:48;25.90;48.80
7700;DHT22;3892;47.794;19.126;2023-09-19T07:00:17;26.00;48.80
7700;DHT22;3892;47.794;19.126;2023-09-19T07:02:55;26.00;48.80
7700;DHT22;3892;47.794;19.126;2023-09-19T07:05:24;26.10;48.80
7700;DHT22;3892;47.794;19.126;2023-09-19T07:07:52;26.10;49.00
7700;DHT22;3892;47.794;19.126;2023-09-19T07:10:21;26.10;48.80
7700;DHT22;3892;47.794;19.126;2023-09-19T07:12:56;26.10;48.80
7700;DHT22;3892;47.794;19.126;2023-09-19T07:15:25;25.90;48.80
7700;DHT22;3892;47.794;19.126;2023-09-19T07:17:54;26.00;49.00
7700;DHT22;3892;47.794;19.126;2023-09-19T07:20:24;25.90;49.10
7700;DHT22;3892;47.794;19.126;2023-09-19T07:22:53;25.90;49.20
7700;DHT22;3892;47.794;19.126;2023-09-19T07:25:22;25.90;49.20
7700;DHT22;3892;47.794;19.126;2023-09-19T07:27:51;25.80;49.10
7700;DHT22;3892;47.794;19.126;2023-09-19T07:30:20;25.90;49.30
7700;DHT22;3892;47.794;19.126;2023-09-19T07:32:48;25.90;49.30
7700;DHT22;3892;47.794;19.126;2023-09-19T07:35:17;25.90;49.40
7700;DHT22;3892;47.794;19.126;2023-09-19T07:37:46;26.00;49.50
7700;DHT22;3892;47.794;19.126;2023-09-19T07:40:16;25.90;49.40
7700;DHT22;3892;47.794;19.126;2023-09-19T07:42:44;25.90;49.50
7700;DHT22;3892;47.794;19.126;2023-09-19T07:45:13;25.80;49.50
7700;DHT22;3892;47.794;19.126;2023-09-19T07:47:45;25.90;49.60
7700;DHT22;3892;47.794;19.126;2023-09-19T07:50:14;25.80;49.40
7700;DHT22;3892;47.794;19.126;2023-09-19T07:52:43;25.90;49.40
7700;DHT22;3892;47.794;19.126;2023-09-19T07:55:11;25.90;49.40
7700;DHT22;3892;47.794;19.126;2023-09-19T07:57:44;25.90;49.50
7700;DHT22;3892;47.794;19.126;2023-09-19T08:00:13;25.90;49.50
7700;DHT22;3892;47.794;19.126;2023-09-19T08:02:42;26.00;49.60
7700;DHT22;3892;47.794;19.126;2023-09-19T08:05:12;26.00;49.60
7700;DHT22;3892;47.794;19.126;2023-09-19T08:07:45;26.00;49.80
7700;DHT22;3892;47.794;19.126;2023-09-19T08:10:15;26.00;49.80
7700;DHT22;3892;47.794;19.126;2023-09-19T08:12:47;25.90;50.00
7700;DHT22;3892;47.794;19.126;2023-09-19T08:15:16;25.90;50.00
7700;DHT22;3892;47.794;19.126;2023-09-19T08:17:46;25.90;50.10
7700;DHT22;3892;47.794;19.126;2023-09-19T08:20:16;25.80;50.10
7700;DHT22;3892;47.794;19.126;2023-09-19T08:22:47;25.80;50.50
7700;DHT22;3892;47.794;19.126;2023-09-19T08:25:16;25.80;50.60
7700;DHT22;3892;47.794;19.126;2023-09-19T08:27:45;25.90;50.70
7700;DHT22;3892;47.794;19.126;2023-09-19T08:30:14;25.80;50.40
7700;DHT22;3892;47.794;19.126;2023-09-19T08:32:43;25.90;50.20
7700;DHT22;3892;47.794;19.126;2023-09-19T08:35:11;25.90;50.20
7700;DHT22;3892;47.794;19.126;2023-09-19T08:37:41;25.90;50.60
7700;DHT22;3892;47.794;19.126;2023-09-19T08:40:12;26.00;50.40
7700;DHT22;3892;47.794;19.126;2023-09-19T08:42:50;26.00;50.20
7700;DHT22;3892;47.794;19.126;2023-09-19T08:45:18;26.00;50.20
7700;DHT22;3892;47.794;19.126;2023-09-19T08:47:55;26.00;50.20
7700;DHT22;3892;47.794;19.126;2023-09-19T08:50:27;25.90;50.00
7700;DHT22;3892;47.794;19.126;2023-09-19T08:53:00;25.80;50.00
7700;DHT22;3892;47.794;19.126;2023-09-19T08:55:29;25.80;50.10
7700;DHT22;3892;47.794;19.126;2023-09-19T08:58:00;25.80;50.00
7700;DHT22;3892;47.794;19.126;2023-09-19T09:00:30;25.80;50.00
7700;DHT22;3892;47.794;19.126;2023-09-19T09:02:59;25.80;50.20
7700;DHT22;3892;47.794;19.126;2023-09-19T09:05:29;25.80;50.30
7700;DHT22;3892;47.794;19.126;2023-09-19T09:08:00;25.80;50.00
7700;DHT22;3892;47.794;19.126;2023-09-19T09:10:30;25.80;49.80
7700;DHT22;3892;47.794;19.126;2023-09-19T09:12:58;25.70;50.10
7700;DHT22;3892;47.794;19.126;2023-09-19T09:15:29;25.70;50.40
7700;DHT22;3892;47.794;19.126;2023-09-19T09:17:58;25.70;50.40
7700;DHT22;3892;47.794;19.126;2023-09-19T09:20:26;25.70;50.30
7700;DHT22;3892;47.794;19.126;2023-09-19T09:22:56;25.80;50.10
7700;DHT22;3892;47.794;19.126;2023-09-19T09:25:49;25.80;50.10
7700;DHT22;3892;47.794;19.126;2023-09-19T09:28:23;25.80;49.90
7700;DHT22;3892;47.794;19.126;2023-09-19T09:30:51;25.80;49.70
7700;DHT22;3892;47.794;19.126;2023-09-19T09:33:19;25.70;50.00
7700;DHT22;3892;47.794;19.126;2023-09-19T09:35:49;25.80;50.20
7700;DHT22;3892;47.794;19.126;2023-09-19T09:38:20;25.80;50.20
7700;DHT22;3892;47.794;19.126;2023-09-19T09:40:51;25.90;50.10
7700;DHT22;3892;47.794;19.126;2023-09-19T09:43:30;25.80;50.10
7700;DHT22;3892;47.794;19.126;2023-09-19T09:46:12;25.90;50.10
7700;DHT22;3892;47.794;19.126;2023-09-19T09:49:23;25.90;49.90
7700;DHT22;3892;47.794;19.126;2023-09-19T09:52:01;25.90;49.90
7700;DHT22;3892;47.794;19.126;2023-09-19T09:54:34;26.00;50.20
7700;DHT22;3892;47.794;19.126;2023-09-19T09:57:06;26.10;50.30
7700;DHT22;3892;47.794;19.126;2023-09-19T09:59:45;26.10;50.50
7700;DHT22;3892;47.794;19.126;2023-09-19T10:02:14;26.10;50.50
7700;DHT22;3892;47.794;19.126;2023-09-19T10:04:47;26.20;50.80
7700;DHT22;3892;47.794;19.126;2023-09-19T10:07:36;26.10;50.80
7700;DHT22;3892;47.794;19.126;2023-09-19T10:10:08;26.00;50.60
7700;DHT22;3892;47.794;19.126;2023-09-19T10:12:55;26.00;50.70
7700;DHT22;3892;47.794;19.126;2023-09-19T10:15:31;25.90;50.80
7700;DHT22;3892;47.794;19.126;2023-09-19T10:18:01;26.10;50.90
7700;DHT22;3892;47.794;19.126;2023-09-19T10:20:30;26.20;50.40
7700;DHT22;3892;47.794;19.126;2023-09-19T10:23:07;26.20;50.10
7700;DHT22;3892;47.794;19.126;2023-09-19T10:25:41;26.40;50.00
7700;DHT22;3892;47.794;19.126;2023-09-19T10:28:12;26.40;49.80
7700;DHT22;3892;47.794;19.126;2023-09-19T10:30:41;26.40;50.30
7700;DHT22;3892;47.794;19.126;2023-09-19T10:33:12;26.40;50.00
7700;DHT22;3892;47.794;19.126;2023-09-19T10:35:44;26.40;50.00
7700;DHT22;3892;47.794;19.126;2023-09-19T10:38:15;26.40;49.80
7700;DHT22;3892;47.794;19.126;2023-09-19T10:40:49;26.40;50.00
7700;DHT22;3892;47.794;19.126;2023-09-19T10:43:19;26.40;49.80
7700;DHT22;3892;47.794;19.126;2023-09-19T10:45:49;26.50;50.10
7700;DHT22;3892;47.794;19.126;2023-09-19T10:48:20;26.50;49.80
7700;DHT22;3892;47.794;19.126;2023-09-19T10:50:56;26.50;49.90
7700;DHT22;3892;47.794;19.126;2023-09-19T10:53:27;26.50;49.70
7700;DHT22;3892;47.794;19.126;2023-09-19T10:55:59;26.50;49.70
7700;DHT22;3892;47.794;19.126;2023-09-19T10:58:38;26.60;49.70
7700;DHT22;3892;47.794;19.126;2023-09-19T11:01:07;26.40;48.90
7700;DHT22;3892;47.794;19.126;2023-09-19T11:03:39;26.60;49.40
7700;DHT22;3892;47.794;19.126;2023-09-19T11:06:12;26.50;49.50
7700;DHT22;3892;47.794;19.126;2023-09-19T11:09:01;26.60;49.80
7700;DHT22;3892;47.794;19.126;2023-09-19T11:11:50;26.60;49.40
7700;DHT22;3892;47.794;19.126;2023-09-19T11:14:42;26.60;49.70
7700;DHT22;3892;47.794;19.126;2023-09-19T11:17:42;26.60;49.60
7700;DHT22;3892;47.794;19.126;2023-09-19T11:20:21;26.50;49.40
7700;DHT22;3892;47.794;19.126;2023-09-19T11:23:18;26.50;49.70
7700;DHT22;3892;47.794;19.126;2023-09-19T11:25:50;26.50;49.70
7700;DHT22;3892;47.794;19.126;2023-09-19T11:28:30;26.40;49.70
7700;DHT22;3892;47.794;19.126;2023-09-19T11:34:43;26.60;49.70
7700;DHT22;3892;47.794;19.126;2023-09-19T11:40:45;26.60;49.20
7700;DHT22;3892;47.794;19.126;2023-09-19T11:43:32;26.60;49.30
7700;DHT22;3892;47.794;19.126;2023-09-19T11:46:03;26.70;49.60
7700;DHT22;3892;47.794;19.126;2023-09-19T11:48:32;26.70;49.80
7700;DHT22;3892;47.794;19.126;2023-09-19T11:51:16;26.80;49.40
7700;DHT22;3892;47.794;19.126;2023-09-19T11:53:51;26.80;48.90
7700;DHT22;3892;47.794;19.126;2023-09-19T11:56:20;26.90;49.10
7700;DHT22;3892;47.794;19.126;2023-09-19T11:58:52;27.00;49.20
7700;DHT22;3892;47.794;19.126;2023-09-19T12:01:30;27.10;48.80
7700;DHT22;3892;47.794;19.126;2023-09-19T12:04:00;27.30;48.90
7700;DHT22;3892;47.794;19.126;2023-09-19T12:06:29;27.40;48.80
7700;DHT22;3892;47.794;19.126;2023-09-19T12:08:59;27.50;48.70
7700;DHT22;3892;47.794;19.126;2023-09-19T12:11:29;27.60;48.30
7700;DHT22;3892;47.794;19.126;2023-09-19T12:14:00;27.50;47.90
7700;DHT22;3892;47.794;19.126;2023-09-19T12:16:31;27.50;47.60
7700;DHT22;3892;47.794;19.126;2023-09-19T12:19:17;27.60;47.60
7700;DHT22;3892;47.794;19.126;2023-09-19T12:21:54;27.70;47.40
7700;DHT22;3892;47.794;19.126;2023-09-19T12:24:25;27.70;47.80
7700;DHT22;3892;47.794;19.126;2023-09-19T12:27:00;27.90;47.30
7700;DHT22;3892;47.794;19.126;2023-09-19T12:29:32;28.10;47.30
7700;DHT22;3892;47.794;19.126;2023-09-19T12:32:12;28.30;47.30
7700;DHT22;3892;47.794;19.126;2023-09-19T12:34:41;28.40;46.50
7700;DHT22;3892;47.794;19.126;2023-09-19T12:37:11;28.50;46.40
7700;DHT22;3892;47.794;19.126;2023-09-19T12:39:40;28.60;46.00
7700;DHT22;3892;47.794;19.126;2023-09-19T12:42:10;28.70;45.60
7700;DHT22;3892;47.794;19.126;2023-09-19T12:44:42;28.70;45.40
7700;DHT22;3892;47.794;19.126;2023-09-19T12:47:15;28.70;45.50
7700;DHT22;3892;47.794;19.126;2023-09-19T12:50:05;28.70;45.40
7700;DHT22;3892;47.794;19.126;2023-09-19T12:52:35;28.70;45.50
7700;DHT22;3892;47.794;19.126;2023-09-19T12:55:04;28.70;45.50
7700;DHT22;3892;47.794;19.126;2023-09-19T12:57:33;28.60;45.50
7700;DHT22;3892;47.794;19.126;2023-09-19T13:00:02;28.50;45.10
7700;DHT22;3892;47.794;19.126;2023-09-19T13:02:33;28.50;45.70
7700;DHT22;3892;47.794;19.126;2023-09-19T13:05:02;28.50;45.60
7700;DHT22;3892;47.794;19.126;2023-09-19T13:07:43;28.50;45.80
7700;DHT22;3892;47.794;19.126;2023-09-19T13:10:12;28.50;46.10
7700;DHT22;3892;47.794;19.126;2023-09-19T13:12:43;28.50;46.20
7700;DHT22;3892;47.794;19.126;2023-09-19T13:15:15;28.50;46.00
7700;DHT22;3892;47.794;19.126;2023-09-19T13:17:48;28.50;45.90
7700;DHT22;3892;47.794;19.126;2023-09-19T13:20:23;28.50;46.00
7700;DHT22;3892;47.794;19.126;2023-09-19T13:22:59;28.50;45.80
7700;DHT22;3892;47.794;19.126;2023-09-19T13:25:38;28.50;46.10
7700;DHT22;3892;47.794;19.126;2023-09-19T13:28:06;28.60;45.60
7700;DHT22;3892;47.794;19.126;2023-09-19T13:30:37;28.50;45.70
7700;DHT22;3892;47.794;19.126;2023-09-19T13:33:11;28.60;45.20
7700;DHT22;3892;47.794;19.126;2023-09-19T13:35:46;28.70;45.50
7700;DHT22;3892;47.794;19.126;2023-09-19T13:38:15;28.90;45.80
7700;DHT22;3892;47.794;19.126;2023-09-19T13:40:43;29.00;44.90
7700;DHT22;3892;47.794;19.126;2023-09-19T13:43:11;29.00;45.10
7700;DHT22;3892;47.794;19.126;2023-09-19T13:45:40;29.10;44.30
7700;DHT22;3892;47.794;19.126;2023-09-19T13:48:10;29.10;44.70
7700;DHT22;3892;47.794;19.126;2023-09-19T13:50:39;29.20;44.50
7700;DHT22;3892;47.794;19.126;2023-09-19T13:53:09;29.20;44.20
7700;DHT22;3892;47.794;19.126;2023-09-19T13:55:37;29.30;44.00
7700;DHT22;3892;47.794;19.126;2023-09-19T13:58:05;29.40;44.00
7700;DHT22;3892;47.794;19.126;2023-09-19T14:00:34;29.50;44.00
7700;DHT22;3892;47.794;19.126;2023-09-19T14:03:02;29.50;43.90
7700;DHT22;3892;47.794;19.126;2023-09-19T14:05:32;29.60;43.10
7700;DHT22;3892;47.794;19.126;2023-09-19T14:08:00;29.60;42.70
7700;DHT22;3892;47.794;19.126;2023-09-19T14:10:30;29.70;42.90
7700;DHT22;3892;47.794;19.126;2023-09-19T14:12:59;29.70;42.90
7700;DHT22;3892;47.794;19.126;2023-09-19T14:15:27;29.80;43.10
7700;DHT22;3892;47.794;19.126;2023-09-19T14:17:57;29.80;42.80
7700;DHT22;3892;47.794;19.126;2023-09-19T14:20:26;29.90;42.70
7700;DHT22;3892;47.794;19.126;2023-09-19T14:22:57;29.90;42.80
7700;DHT22;3892;47.794;19.126;2023-09-19T14:25:27;30.00;42.80
7700;DHT22;3892;47.794;19.126;2023-09-19T14:27:55;30.10;43.00
7700;DHT22;3892;47.794;19.126;2023-09-19T14:30:23;30.10;43.00
7700;DHT22;3892;47.794;19.126;2023-09-19T14:32:51;30.10;42.40
7700;DHT22;3892;47.794;19.126;2023-09-19T14:35:20;30.10;42.60
7700;DHT22;3892;47.794;19.126;2023-09-19T14:37:49;30.10;42.50
7700;DHT22;3892;47.794;19.126;2023-09-19T14:40:19;30.10;42.90
7700;DHT22;3892;47.794;19.126;2023-09-19T14:42:49;30.10;42.80
7700;DHT22;3892;47.794;19.126;2023-09-19T14:45:18;30.10;43.20
7700;DHT22;3892;47.794;19.126;2023-09-19T14:47:46;30.10;43.10
7700;DHT22;3892;47.794;19.126;2023-09-19T14:50:15;30.20;42.60
7700;DHT22;3892;47.794;19.126;2023-09-19T14:52:43;30.10;42.30
7700;DHT22;3892;47.794;19.126;2023-09-19T14:55:11;30.00;42.40
7700;DHT22;3892;47.794;19.126;2023-09-19T14:57:42;30.00;42.80
7700;DHT22;3892;47.794;19.126;2023-09-19T15:00:14;30.10;43.30
7700;DHT22;3892;47.794;19.126;2023-09-19T15:02:43;30.20;43.10
7700;DHT22;3892;47.794;19.126;2023-09-19T15:05:13;30.20;43.00
7700;DHT22;3892;47.794;19.126;2023-09-19T15:07:44;30.30;43.20
7700;DHT22;3892;47.794;19.126;2023-09-19T15:10:13;30.40;42.60
7700;DHT22;3892;47.794;19.126;2023-09-19T15:12:42;30.40;42.30
7700;DHT22;3892;47.794;19.126;2023-09-19T15:15:11;30.40;42.30
7700;DHT22;3892;47.794;19.126;2023-09-19T15:17:40;30.50;42.10
7700;DHT22;3892;47.794;19.126;2023-09-19T15:20:10;30.50;41.90
7700;DHT22;3892;47.794;19.126;2023-09-19T15:22:41;30.50;41.60
7700;DHT22;3892;47.794;19.126;2023-09-19T15:25:11;30.40;41.60
7700;DHT22;3892;47.794;19.126;2023-09-19T15:27:41;30.50;41.90
7700;DHT22;3892;47.794;19.126;2023-09-19T15:30:11;30.50;41.90
7700;DHT22;3892;47.794;19.126;2023-09-19T15:32:42;30.60;42.20
7700;DHT22;3892;47.794;19.126;2023-09-19T15:35:11;30.60;42.00
7700;DHT22;3892;47.794;19.126;2023-09-19T15:37:40;30.60;41.90
7700;DHT22;3892;47.794;19.126;2023-09-19T15:40:10;30.50;41.20
7700;DHT22;3892;47.794;19.126;2023-09-19T15:42:42;30.50;41.20
7700;DHT22;3892;47.794;19.126;2023-09-19T15:45:12;30.30;40.90
7700;DHT22;3892;47.794;19.126;2023-09-19T15:47:42;30.40;41.10
7700;DHT22;3892;47.794;19.126;2023-09-19T15:50:11;30.40;41.30
7700;DHT22;3892;47.794;19.126;2023-09-19T15:52:41;30.30;41.30
7700;DHT22;3892;47.794;19.126;2023-09-19T15:55:09;30.20;41.00
7700;DHT22;3892;47.794;19.126;2023-09-19T15:57:39;30.10;41.10
7700;DHT22;3892;47.794;19.126;2023-09-19T16:00:11;30.00;41.20
7700;DHT22;3892;47.794;19.126;2023-09-19T16:02:45;29.90;41.20
7700;DHT22;3892;47.794;19.126;2023-09-19T16:05:18;29.80;41.30
7700;DHT22;3892;47.794;19.126;2023-09-19T16:07:46;29.70;41.30
7700;DHT22;3892;47.794;19.126;2023-09-19T16:10:15;29.60;41.30
7700;DHT22;3892;47.794;19.126;2023-09-19T16:12:43;29.40;41.40
7700;DHT22;3892;47.794;19.126;2023-09-19T16:15:14;29.40;41.90
7700;DHT22;3892;47.794;19.126;2023-09-19T16:17:44;29.30;42.00